createdAt,value
2022-09-28T17:11:51.670Z,98976.40
2022-09-28T17:15:02.502Z,98974.80
2022-09-28T17:18:09.456Z,98983.40
2022-09-28T17:21:22.645Z,98987.00
2022-09-28T17:24:29.559Z,98988.20
2022-09-28T17:27:45.595Z,98993.60
2022-09-28T17:30:52.775Z,99000.40
2022-09-28T17:34:06.547Z,99005.60
2022-09-28T17:37:16.707Z,99015.60
2022-09-28T17:40:26.172Z,99018.20
2022-09-28T17:43:33.554Z,99024.40
2022-09-28T17:46:47.701Z,99021.80
2022-09-28T17:49:57.625Z,99020.80
2022-09-28T17:53:05.619Z,99020.20
2022-09-28T17:56:12.627Z,99021.60
2022-09-28T17:59:19.790Z,99023.20
2022-09-28T18:02:29.687Z,99029.60
2022-09-28T18:05:42.631Z,99026.00
2022-09-28T18:08:49.668Z,99026.40
2022-09-28T18:11:56.759Z,99025.40
2022-09-28T18:15:04.655Z,99023.80
2022-09-28T18:18:14.656Z,99033.00
2022-09-28T18:21:23.687Z,99028.80
2022-09-28T18:24:30.709Z,99030.20
2022-09-28T18:27:40.728Z,99030.60
2022-09-28T18:30:50.719Z,99033.00
2022-09-28T18:34:00.765Z,99026.40
2022-09-28T18:37:11.791Z,99023.60
2022-09-28T18:40:24.668Z,99033.60
2022-09-28T18:43:37.742Z,99029.80
2022-09-28T18:46:44.853Z,99025.80
2022-09-28T18:49:52.735Z,99022.00
2022-09-28T18:53:02.748Z,99023.80
2022-09-28T18:56:15.805Z,99025.60
2022-09-28T18:59:22.901Z,99026.80
2022-09-28T19:02:33.950Z,99025.60
2022-09-28T19:05:41.813Z,99025.60
2022-09-28T19:08:56.820Z,99024.20
2022-09-28T19:12:06.824Z,99024.60
2022-09-28T19:15:13.761Z,99022.80
2022-09-28T19:18:20.859Z,99031.00
2022-09-28T19:21:30.862Z,99035.60
2022-09-28T19:24:40.816Z,99037.60
2022-09-28T19:27:47.856Z,99039.00
2022-09-28T19:34:15.945Z,99034.80
2022-09-28T19:37:25.902Z,99032.40
2022-09-28T19:40:35.925Z,99034.60
2022-09-28T19:43:43.875Z,99031.40
2022-09-28T19:46:53.926Z,99028.80
2022-09-28T19:50:04.908Z,99027.20
2022-09-28T19:53:11.919Z,99031.60
2022-09-28T19:56:18.996Z,99029.60
2022-09-28T19:59:34.179Z,99032.80
2022-09-28T20:02:41.939Z,99038.20
2022-09-28T20:05:48.893Z,99047.60
2022-09-28T20:08:55.897Z,99048.20
2022-09-28T20:12:03.080Z,99058.40
2022-09-28T20:15:12.969Z,99060.80
2022-09-28T20:18:25.980Z,99063.40
2022-09-28T20:21:35.999Z,99062.60
2022-09-28T20:24:46.006Z,99057.00
2022-09-28T20:27:56.084Z,99063.40
2022-09-28T20:31:03.130Z,99068.00
2022-09-28T20:34:10.990Z,99069.40
2022-09-28T20:37:18.072Z,99073.60
2022-09-28T20:40:25.129Z,99076.80
2022-09-28T20:43:35.056Z,99079.80
2022-09-28T20:46:42.032Z,99081.20
2022-09-28T20:49:52.049Z,99084.60
2022-09-28T20:53:02.091Z,99089.80
2022-09-28T20:56:12.053Z,99095.00
2022-09-28T20:59:22.046Z,99098.20
2022-09-28T21:02:29.139Z,99096.80
2022-09-28T21:05:39.032Z,99099.20
2022-09-28T21:08:49.097Z,99101.60
2022-09-28T21:11:56.129Z,99105.40
2022-09-28T21:15:06.283Z,99100.80
2022-09-28T21:18:14.233Z,99110.20
2022-09-28T21:21:26.194Z,99112.40
2022-09-28T21:24:36.124Z,99109.60
2022-09-28T21:27:43.180Z,99107.60
2022-09-28T21:30:53.225Z,99106.20
2022-09-28T21:34:03.178Z,99110.60
2022-09-28T21:37:13.175Z,99108.40
2022-09-28T21:40:20.226Z,99112.20
2022-09-28T21:43:33.212Z,99115.60
2022-09-28T21:46:46.312Z,99117.00
2022-09-28T21:49:56.272Z,99123.60
2022-09-28T21:53:03.187Z,99127.20
2022-09-28T21:56:10.263Z,99128.20
2022-09-28T21:59:20.243Z,99127.60
2022-09-28T22:02:30.331Z,99126.60
2022-09-28T22:05:37.265Z,99122.00
2022-09-28T22:08:44.291Z,99124.00
2022-09-28T22:11:54.354Z,99120.80
2022-09-28T22:15:07.417Z,99118.80
2022-09-28T22:18:17.288Z,99121.00
2022-09-28T22:21:27.253Z,99118.60
2022-09-28T22:24:34.277Z,99116.80
2022-09-28T22:27:44.362Z,99111.00
2022-09-28T22:30:51.351Z,99108.20
2022-09-28T22:34:02.235Z,99109.20
2022-09-28T22:37:09.313Z,99108.80
2022-09-28T22:40:16.317Z,99103.20
2022-09-28T22:43:26.339Z,99110.40
2022-09-28T22:46:36.395Z,99117.60
2022-09-28T22:49:43.423Z,99115.80
2022-09-28T22:52:53.354Z,99124.00
2022-09-28T22:56:00.450Z,99129.20
2022-09-28T22:59:08.400Z,99133.00
2022-09-28T23:02:15.414Z,99127.60
2022-09-28T23:05:25.389Z,99127.00
2022-09-28T23:08:32.438Z,99126.00
2022-09-28T23:11:42.406Z,99129.60
2022-09-28T23:14:49.437Z,99126.00
2022-09-28T23:17:56.401Z,99122.20
2022-09-28T23:21:03.499Z,99119.40
2022-09-28T23:24:16.409Z,99118.20
2022-09-28T23:27:23.476Z,99116.20
2022-09-28T23:30:36.288Z,99116.80
2022-09-28T23:33:43.463Z,99121.60
2022-09-28T23:36:55.498Z,99129.00
2022-09-28T23:40:05.948Z,99130.00
2022-09-28T23:43:13.506Z,99127.40
2022-09-28T23:46:23.536Z,99125.20
2022-09-28T23:49:30.520Z,99119.00
2022-09-28T23:52:40.523Z,99117.00
2022-09-28T23:55:50.554Z,99120.80
2022-09-28T23:59:00.557Z,99117.40
